sensor_id;sensor_type;location;lat;lon;timestamp;temperature;humidity
20520;DHT22;53432;51.952;14.740;2022-11-25T00:01:19;16.20;99.90
20520;DHT22;53432;51.952;14.740;2022-11-25T00:03:47;16.20;99.90
20520;DHT22;53432;51.952;14.740;2022-11-25T00:06:15;16.10;99.90
20520;DHT22;53432;51.952;14.740;2022-11-25T00:08:46;16.10;99.90
20520;DHT22;53432;51.952;14.740;2022-11-25T00:11:15;16.10;99.90
20520;DHT22;53432;51.952;14.740;2022-11-25T00:13:44;16.10;99.90
20520;DHT22;53432;51.952;14.740;2022-11-25T00:16:14;16.10;99.90
20520;DHT22;53432;51.952;14.740;2022-11-25T00:18:45;16.00;99.90
20520;DHT22;53432;51.952;14.740;2022-11-25T00:21:15;16.00;99.90
20520;DHT22;53432;51.952;14.740;2022-11-25T00:23:43;16.00;99.90
20520;DHT22;53432;51.952;14.740;2022-11-25T00:26:13;16.00;99.90
20520;DHT22;53432;51.952;14.740;2022-11-25T00:28:42;16.00;99.90
20520;DHT22;53432;51.952;14.740;2022-11-25T00:31:11;16.00;99.90
20520;DHT22;53432;51.952;14.740;2022-11-25T00:33:39;15.90;99.90
20520;DHT22;53432;51.952;14.740;2022-11-25T00:36:14;15.90;99.90
20520;DHT22;53432;51.952;14.740;2022-11-25T00:38:41;15.90;99.90
20520;DHT22;53432;51.952;14.740;2022-11-25T00:41:09;15.90;99.90
20520;DHT22;53432;51.952;14.740;2022-11-25T00:43:54;15.90;99.90
20520;DHT22;53432;51.952;14.740;2022-11-25T00:46:39;15.90;99.90
20520;DHT22;53432;51.952;14.740;2022-11-25T00:49:07;15.90;99.90
20520;DHT22;53432;51.952;14.740;2022-11-25T00:51:36;15.90;99.90
20520;DHT22;53432;51.952;14.740;2022-11-25T00:54:04;15.90;99.90
20520;DHT22;53432;51.952;14.740;2022-11-25T00:56:31;15.80;99.90
20520;DHT22;53432;51.952;14.740;2022-11-25T00:58:58;15.80;99.90
20520;DHT22;53432;51.952;14.740;2022-11-25T01:01:26;15.90;99.90
20520;DHT22;53432;51.952;14.740;2022-11-25T01:03:54;15.80;99.90
20520;DHT22;53432;51.952;14.740;2022-11-25T01:06:21;15.90;99.90
20520;DHT22;53432;51.952;14.740;2022-11-25T01:08:50;15.80;99.90
20520;DHT22;53432;51.952;14.740;2022-11-25T01:11:19;15.90;99.90
20520;DHT22;53432;51.952;14.740;2022-11-25T01:13:47;15.80;99.90
20520;DHT22;53432;51.952;14.740;2022-11-25T01:16:17;15.80;99.90
20520;DHT22;53432;51.952;14.740;2022-11-25T01:18:45;15.80;99.90
20520;DHT22;53432;51.952;14.740;2022-11-25T01:21:14;15.80;99.90
20520;DHT22;53432;51.952;14.740;2022-11-25T01:23:42;15.80;99.90
20520;DHT22;53432;51.952;14.740;2022-11-25T01:26:12;15.90;99.90
20520;DHT22;53432;51.952;14.740;2022-11-25T01:28:40;15.90;99.90
20520;DHT22;53432;51.952;14.740;2022-11-25T01:31:10;15.90;99.90
20520;DHT22;53432;51.952;14.740;2022-11-25T01:33:39;16.00;99.90
20520;DHT22;53432;51.952;14.740;2022-11-25T01:36:09;16.00;99.90
20520;DHT22;53432;51.952;14.740;2022-11-25T01:38:37;16.00;99.90
20520;DHT22;53432;51.952;14.740;2022-11-25T01:41:07;16.10;99.90
20520;DHT22;53432;51.952;14.740;2022-11-25T01:43:36;16.10;99.90
20520;DHT22;53432;51.952;14.740;2022-11-25T01:46:08;16.10;99.90
20520;DHT22;53432;51.952;14.740;2022-11-25T01:48:41;16.20;99.90
20520;DHT22;53432;51.952;14.740;2022-11-25T01:51:17;16.20;99.90
20520;DHT22;53432;51.952;14.740;2022-11-25T01:53:46;16.20;99.90
20520;DHT22;53432;51.952;14.740;2022-11-25T01:56:14;16.30;99.90
20520;DHT22;53432;51.952;14.740;2022-11-25T01:58:45;16.30;99.90
20520;DHT22;53432;51.952;14.740;2022-11-25T02:01:14;16.40;99.90
20520;DHT22;53432;51.952;14.740;2022-11-25T02:03:45;16.40;99.90
20520;DHT22;53432;51.952;14.740;2022-11-25T02:06:17;16.40;99.90
20520;DHT22;53432;51.952;14.740;2022-11-25T02:08:49;16.50;99.90
20520;DHT22;53432;51.952;14.740;2022-11-25T02:11:19;16.50;99.90
20520;DHT22;53432;51.952;14.740;2022-11-25T02:13:49;16.60;99.90
20520;DHT22;53432;51.952;14.740;2022-11-25T02:16:17;16.60;99.90
20520;DHT22;53432;51.952;14.740;2022-11-25T02:18:45;16.70;99.90
20520;DHT22;53432;51.952;14.740;2022-11-25T02:21:14;16.80;99.90
20520;DHT22;53432;51.952;14.740;2022-11-25T02:23:48;16.90;99.90
20520;DHT22;53432;51.952;14.740;2022-11-25T02:26:19;16.90;99.90
20520;DHT22;53432;51.952;14.740;2022-11-25T02:28:47;17.00;99.90
20520;DHT22;53432;51.952;14.740;2022-11-25T02:31:18;17.10;99.90
20520;DHT22;53432;51.952;14.740;2022-11-25T02:33:46;17.10;99.90
20520;DHT22;53432;51.952;14.740;2022-11-25T02:36:15;17.20;99.90
20520;DHT22;53432;51.952;14.740;2022-11-25T02:38:46;17.20;99.90
20520;DHT22;53432;51.952;14.740;2022-11-25T02:41:16;17.30;99.90
20520;DHT22;53432;51.952;14.740;2022-11-25T02:43:45;17.40;99.90
20520;DHT22;53432;51.952;14.740;2022-11-25T02:46:14;17.40;99.90
20520;DHT22;53432;51.952;14.740;2022-11-25T02:48:43;17.40;99.90
20520;DHT22;53432;51.952;14.740;2022-11-25T02:51:13;17.50;99.90
20520;DHT22;53432;51.952;14.740;2022-11-25T02:53:41;17.50;99.90
20520;DHT22;53432;51.952;14.740;2022-11-25T02:56:09;17.50;99.90
20520;DHT22;53432;51.952;14.740;2022-11-25T02:58:38;17.50;99.90
20520;DHT22;53432;51.952;14.740;2022-11-25T03:01:07;17.50;99.90
20520;DHT22;53432;51.952;14.740;2022-11-25T03:03:35;17.60;99.90
20520;DHT22;53432;51.952;14.740;2022-11-25T03:06:03;17.50;99.90
20520;DHT22;53432;51.952;14.740;2022-11-25T03:08:30;17.50;99.90
20520;DHT22;53432;51.952;14.740;2022-11-25T03:10:58;17.50;99.90
20520;DHT22;53432;51.952;14.740;2022-11-25T03:13:25;17.50;99.90
20520;DHT22;53432;51.952;14.740;2022-11-25T03:15:53;17.50;99.90
20520;DHT22;53432;51.952;14.740;2022-11-25T03:18:22;17.50;99.90
20520;DHT22;53432;51.952;14.740;2022-11-25T03:20:51;17.50;99.90
20520;DHT22;53432;51.952;14.740;2022-11-25T03:23:19;17.40;99.90
20520;DHT22;53432;51.952;14.740;2022-11-25T03:25:47;17.40;99.90
20520;DHT22;53432;51.952;14.740;2022-11-25T03:28:15;17.30;99.90
20520;DHT22;53432;51.952;14.740;2022-11-25T03:30:43;17.30;99.90
20520;DHT22;53432;51.952;14.740;2022-11-25T03:33:10;17.30;99.90
20520;DHT22;53432;51.952;14.740;2022-11-25T03:35:39;17.20;99.90
20520;DHT22;53432;51.952;14.740;2022-11-25T03:38:07;17.20;99.90
20520;DHT22;53432;51.952;14.740;2022-11-25T03:40:34;17.20;99.90
20520;DHT22;53432;51.952;14.740;2022-11-25T03:43:01;17.10;99.90
20520;DHT22;53432;51.952;14.740;2022-11-25T03:45:29;17.10;99.90
20520;DHT22;53432;51.952;14.740;2022-11-25T03:47:56;17.00;99.90
20520;DHT22;53432;51.952;14.740;2022-11-25T03:50:24;17.00;99.90
20520;DHT22;53432;51.952;14.740;2022-11-25T03:52:53;16.90;99.90
20520;DHT22;53432;51.952;14.740;2022-11-25T03:55:20;16.90;99.90
20520;DHT22;53432;51.952;14.740;2022-11-25T03:57:48;16.80;99.90
20520;DHT22;53432;51.952;14.740;2022-11-25T04:00:15;16.80;99.90
20520;DHT22;53432;51.952;14.740;2022-11-25T04:02:43;16.70;99.90
20520;DHT22;53432;51.952;14.740;2022-11-25T04:05:10;16.70;99.90
20520;DHT22;53432;51.952;14.740;2022-11-25T04:07:38;16.70;99.90
20520;DHT22;53432;51.952;14.740;2022-11-25T04:10:08;16.60;99.90
20520;DHT22;53432;51.952;14.740;2022-11-25T04:12:35;16.60;99.90
20520;DHT22;53432;51.952;14.740;2022-11-25T04:15:16;16.60;99.90
20520;DHT22;53432;51.952;14.740;2022-11-25T04:17:43;16.50;99.90
20520;DHT22;53432;51.952;14.740;2022-11-25T04:20:12;16.50;99.90
20520;DHT22;53432;51.952;14.740;2022-11-25T04:22:40;16.40;99.90
20520;DHT22;53432;51.952;14.740;2022-11-25T04:25:09;16.40;99.90
20520;DHT22;53432;51.952;14.740;2022-11-25T04:27:37;16.40;99.90
20520;DHT22;53432;51.952;14.740;2022-11-25T04:30:06;16.40;99.90
20520;DHT22;53432;51.952;14.740;2022-11-25T04:32:35;16.30;99.90
20520;DHT22;53432;51.952;14.740;2022-11-25T04:35:03;16.30;99.90
20520;DHT22;53432;51.952;14.740;2022-11-25T04:37:31;16.30;99.90
20520;DHT22;53432;51.952;14.740;2022-11-25T04:39:58;16.20;99.90
20520;DHT22;53432;51.952;14.740;2022-11-25T04:42:27;16.20;99.90
20520;DHT22;53432;51.952;14.740;2022-11-25T04:44:58;16.20;99.90
20520;DHT22;53432;51.952;14.740;2022-11-25T04:47:25;16.10;99.90
20520;DHT22;53432;51.952;14.740;2022-11-25T04:49:53;16.20;99.90
20520;DHT22;53432;51.952;14.740;2022-11-25T04:52:20;16.10;99.90
20520;DHT22;53432;51.952;14.740;2022-11-25T04:54:48;16.10;99.90
20520;DHT22;53432;51.952;14.740;2022-11-25T04:57:15;16.10;99.90
20520;DHT22;53432;51.952;14.740;2022-11-25T04:59:45;16.00;99.90
20520;DHT22;53432;51.952;14.740;2022-11-25T05:02:14;16.00;99.90
20520;DHT22;53432;51.952;14.740;2022-11-25T05:04:43;16.00;99.90
20520;DHT22;53432;51.952;14.740;2022-11-25T05:07:11;16.00;99.90
20520;DHT22;53432;51.952;14.740;2022-11-25T05:09:39;15.90;99.90
20520;DHT22;53432;51.952;14.740;2022-11-25T05:12:07;15.90;99.90
20520;DHT22;53432;51.952;14.740;2022-11-25T05:14:35;15.90;99.90
20520;DHT22;53432;51.952;14.740;2022-11-25T05:17:05;15.90;99.90
20520;DHT22;53432;51.952;14.740;2022-11-25T05:19:33;15.80;99.90
20520;DHT22;53432;51.952;14.740;2022-11-25T05:22:01;15.80;99.90
20520;DHT22;53432;51.952;14.740;2022-11-25T05:24:28;15.80;99.90
20520;DHT22;53432;51.952;14.740;2022-11-25T05:26:56;15.80;99.90
20520;DHT22;53432;51.952;14.740;2022-11-25T05:29:23;15.90;99.90
20520;DHT22;53432;51.952;14.740;2022-11-25T05:31:51;15.90;99.90
20520;DHT22;53432;51.952;14.740;2022-11-25T05:34:20;16.00;99.90
20520;DHT22;53432;51.952;14.740;2022-11-25T05:36:47;16.00;99.90
20520;DHT22;53432;51.952;14.740;2022-11-25T05:39:15;16.00;99.90
20520;DHT22;53432;51.952;14.740;2022-11-25T05:41:42;16.00;99.90
20520;DHT22;53432;51.952;14.740;2022-11-25T05:44:10;16.10;99.90
20520;DHT22;53432;51.952;14.740;2022-11-25T05:46:37;16.10;99.90
20520;DHT22;53432;51.952;14.740;2022-11-25T05:49:05;16.10;99.90
20520;DHT22;53432;51.952;14.740;2022-11-25T05:51:33;16.10;99.90
20520;DHT22;53432;51.952;14.740;2022-11-25T05:54:01;16.20;99.90
20520;DHT22;53432;51.952;14.740;2022-11-25T05:56:29;16.20;99.90
20520;DHT22;53432;51.952;14.740;2022-11-25T05:58:58;16.20;99.90
20520;DHT22;53432;51.952;14.740;2022-11-25T06:01:25;16.30;99.90
20520;DHT22;53432;51.952;14.740;2022-11-25T06:03:53;16.30;99.90
20520;DHT22;53432;51.952;14.740;2022-11-25T06:06:20;16.30;99.90
20520;DHT22;53432;51.952;14.740;2022-11-25T06:08:49;16.30;99.90
20520;DHT22;53432;51.952;14.740;2022-11-25T06:11:18;16.40;99.90
20520;DHT22;53432;51.952;14.740;2022-11-25T06:13:46;16.40;99.90
20520;DHT22;53432;51.952;14.740;2022-11-25T06:16:15;16.50;99.90
20520;DHT22;53432;51.952;14.740;2022-11-25T06:18:43;16.50;99.90
20520;DHT22;53432;51.952;14.740;2022-11-25T06:21:13;16.60;99.90
20520;DHT22;53432;51.952;14.740;2022-11-25T06:23:40;16.60;99.90
20520;DHT22;53432;51.952;14.740;2022-11-25T06:26:13;16.70;99.90
20520;DHT22;53432;51.952;14.740;2022-11-25T06:28:40;16.70;99.90
20520;DHT22;53432;51.952;14.740;2022-11-25T06:31:09;16.80;99.90
20520;DHT22;53432;51.952;14.740;2022-11-25T06:33:37;16.80;99.90
20520;DHT22;53432;51.952;14.740;2022-11-25T06:36:06;16.90;99.90
20520;DHT22;53432;51.952;14.740;2022-11-25T06:38:35;16.90;99.90
20520;DHT22;53432;51.952;14.740;2022-11-25T06:41:03;17.00;99.90
20520;DHT22;53432;51.952;14.740;2022-11-25T06:43:32;17.00;99.90
20520;DHT22;53432;51.952;14.740;2022-11-25T06:46:04;17.00;99.90
20520;DHT22;53432;51.952;14.740;2022-11-25T06:48:32;17.00;99.90
20520;DHT22;53432;51.952;14.740;2022-11-25T06:51:01;17.10;99.90
20520;DHT22;53432;51.952;14.740;2022-11-25T06:53:29;17.00;99.90
20520;DHT22;53432;51.952;14.740;2022-11-25T06:56:08;17.10;99.90
20520;DHT22;53432;51.952;14.740;2022-11-25T06:58:39;17.00;99.90
20520;DHT22;53432;51.952;14.740;2022-11-25T07:01:10;17.00;99.90
20520;DHT22;53432;51.952;14.740;2022-11-25T07:03:38;17.00;99.90
20520;DHT22;53432;51.952;14.740;2022-11-25T07:06:06;17.00;99.90
20520;DHT22;53432;51.952;14.740;2022-11-25T07:08:33;17.00;99.90
20520;DHT22;53432;51.952;14.740;2022-11-25T07:11:02;17.00;99.90
20520;DHT22;53432;51.952;14.740;2022-11-25T07:13:30;17.00;99.90
20520;DHT22;53432;51.952;14.740;2022-11-25T07:16:01;16.90;99.90
20520;DHT22;53432;51.952;14.740;2022-11-25T07:18:30;16.90;99.90
20520;DHT22;53432;51.952;14.740;2022-11-25T07:21:02;16.90;99.90
20520;DHT22;53432;51.952;14.740;2022-11-25T07:23:30;16.90;99.90
20520;DHT22;53432;51.952;14.740;2022-11-25T07:26:01;16.80;99.90
20520;DHT22;53432;51.952;14.740;2022-11-25T07:28:29;16.70;99.90
20520;DHT22;53432;51.952;14.740;2022-11-25T07:31:05;16.70;99.90
20520;DHT22;53432;51.952;14.740;2022-11-25T07:33:33;16.70;99.90
20520;DHT22;53432;51.952;14.740;2022-11-25T07:36:02;16.60;99.90
20520;DHT22;53432;51.952;14.740;2022-11-25T07:38:30;16.70;99.90
20520;DHT22;53432;51.952;14.740;2022-11-25T07:41:03;16.60;99.90
20520;DHT22;53432;51.952;14.740;2022-11-25T07:43:30;16.60;99.90
20520;DHT22;53432;51.952;14.740;2022-11-25T07:46:09;16.50;99.90
20520;DHT22;53432;51.952;14.740;2022-11-25T07:48:36;16.50;99.90
20520;DHT22;53432;51.952;14.740;2022-11-25T07:51:04;16.50;99.90
20520;DHT22;53432;51.952;14.740;2022-11-25T07:53:32;16.40;99.90
20520;DHT22;53432;51.952;14.740;2022-11-25T07:56:00;16.40;99.90
20520;DHT22;53432;51.952;14.740;2022-11-25T07:58:28;16.30;99.90
20520;DHT22;53432;51.952;14.740;2022-11-25T08:00:56;16.30;99.90
20520;DHT22;53432;51.952;14.740;2022-11-25T08:03:24;16.30;99.90
20520;DHT22;53432;51.952;14.740;2022-11-25T08:05:52;16.30;99.90
20520;DHT22;53432;51.952;14.740;2022-11-25T08:08:19;16.20;99.90
20520;DHT22;53432;51.952;14.740;2022-11-25T08:10:47;16.30;99.90
20520;DHT22;53432;51.952;14.740;2022-11-25T08:13:14;16.20;99.90
20520;DHT22;53432;51.952;14.740;2022-11-25T08:15:42;16.20;99.90
20520;DHT22;53432;51.952;14.740;2022-11-25T08:18:09;16.10;99.90
20520;DHT22;53432;51.952;14.740;2022-11-25T08:20:38;16.10;99.90
20520;DHT22;53432;51.952;14.740;2022-11-25T08:23:05;16.10;99.90
20520;DHT22;53432;51.952;14.740;2022-11-25T08:25:38;16.10;99.90
20520;DHT22;53432;51.952;14.740;2022-11-25T08:28:06;16.00;99.90
20520;DHT22;53432;51.952;14.740;2022-11-25T08:30:34;16.00;99.90
20520;DHT22;53432;51.952;14.740;2022-11-25T08:33:02;16.00;99.90
20520;DHT22;53432;51.952;14.740;2022-11-25T08:35:32;16.00;99.90
20520;DHT22;53432;51.952;14.740;2022-11-25T08:38:04;15.90;99.90
20520;DHT22;53432;51.952;14.740;2022-11-25T08:40:33;16.00;99.90
20520;DHT22;53432;51.952;14.740;2022-11-25T08:43:01;15.90;99.90
20520;DHT22;53432;51.952;14.740;2022-11-25T08:45:28;15.90;99.90
20520;DHT22;53432;51.952;14.740;2022-11-25T08:47:56;15.90;99.90
20520;DHT22;53432;51.952;14.740;2022-11-25T08:50:24;15.90;99.90
20520;DHT22;53432;51.952;14.740;2022-11-25T08:52:51;15.90;99.90
20520;DHT22;53432;51.952;14.740;2022-11-25T08:55:20;15.90;99.90
20520;DHT22;53432;51.952;14.740;2022-11-25T08:57:51;15.90;99.90
20520;DHT22;53432;51.952;14.740;2022-11-25T09:00:19;15.80;99.90
20520;DHT22;53432;51.952;14.740;2022-11-25T09:02:47;15.80;99.90
20520;DHT22;53432;51.952;14.740;2022-11-25T09:05:16;15.80;99.90
20520;DHT22;53432;51.952;14.740;2022-11-25T09:07:43;15.80;99.90
20520;DHT22;53432;51.952;14.740;2022-11-25T09:10:14;15.80;99.90
20520;DHT22;53432;51.952;14.740;2022-11-25T09:12:43;15.80;99.90
20520;DHT22;53432;51.952;14.740;2022-11-25T09:15:11;15.80;99.90
20520;DHT22;53432;51.952;14.740;2022-11-25T09:17:38;15.80;99.90
20520;DHT22;53432;51.952;14.740;2022-11-25T09:20:06;15.80;99.90
20520;DHT22;53432;51.952;14.740;2022-11-25T09:22:34;15.70;99.90
20520;DHT22;53432;51.952;14.740;2022-11-25T09:25:02;15.70;99.90
20520;DHT22;53432;51.952;14.740;2022-11-25T09:27:30;15.70;99.90
20520;DHT22;53432;51.952;14.740;2022-11-25T09:29:59;15.70;99.90
20520;DHT22;53432;51.952;14.740;2022-11-25T09:32:26;15.70;99.90
20520;DHT22;53432;51.952;14.740;2022-11-25T09:34:54;15.70;99.90
20520;DHT22;53432;51.952;14.740;2022-11-25T09:37:21;15.70;99.90
20520;DHT22;53432;51.952;14.740;2022-11-25T09:39:50;15.70;99.90
20520;DHT22;53432;51.952;14.740;2022-11-25T09:42:28;15.70;99.90
20520;DHT22;53432;51.952;14.740;2022-11-25T09:45:21;15.70;99.90
20520;DHT22;53432;51.952;14.740;2022-11-25T09:48:29;15.70;99.90
20520;DHT22;53432;51.952;14.740;2022-11-25T09:51:10;15.70;99.90
20520;DHT22;53432;51.952;14.740;2022-11-25T09:53:44;15.80;99.90
20520;DHT22;53432;51.952;14.740;2022-11-25T09:56:20;15.90;99.90
20520;DHT22;53432;51.952;14.740;2022-11-25T09:58:52;15.90;99.90
20520;DHT22;53432;51.952;14.740;2022-11-25T10:01:25;16.00;99.90
20520;DHT22;53432;51.952;14.740;2022-11-25T10:03:56;16.00;99.90
20520;DHT22;53432;51.952;14.740;2022-11-25T10:06:27;16.00;99.90
20520;DHT22;53432;51.952;14.740;2022-11-25T10:08:57;16.10;99.90
20520;DHT22;53432;51.952;14.740;2022-11-25T10:11:37;16.10;99.90
20520;DHT22;53432;51.952;14.740;2022-11-25T10:14:14;16.10;99.90
20520;DHT22;53432;51.952;14.740;2022-11-25T10:16:49;16.20;99.90
20520;DHT22;53432;51.952;14.740;2022-11-25T10:19:25;16.20;99.90
20520;DHT22;53432;51.952;14.740;2022-11-25T10:22:00;16.20;99.90
20520;DHT22;53432;51.952;14.740;2022-11-25T10:24:28;16.20;99.90
20520;DHT22;53432;51.952;14.740;2022-11-25T10:26:58;16.20;99.90
20520;DHT22;53432;51.952;14.740;2022-11-25T10:29:29;16.30;99.90
20520;DHT22;53432;51.952;14.740;2022-11-25T10:32:13;16.30;99.90
20520;DHT22;53432;51.952;14.740;2022-11-25T10:34:48;16.30;99.90
20520;DHT22;53432;51.952;14.740;2022-11-25T10:37:28;16.30;99.90
20520;DHT22;53432;51.952;14.740;2022-11-25T10:39:56;16.40;99.90
20520;DHT22;53432;51.952;14.740;2022-11-25T10:42:26;16.50;99.90
20520;DHT22;53432;51.952;14.740;2022-11-25T10:44:54;16.50;99.90
20520;DHT22;53432;51.952;14.740;2022-11-25T10:47:34;16.60;99.90
